CheckWX is a tool to help pilots better visualize weather data.  It is not intended as a substitute for an official pre-flight weather briefing.

21:05:58 UTC

KPHF METAR
Newport News / Williamsburg International Airport
Newport News, Virginia, USA
Current

1 hour ago

KPHF 231954Z 22009KT 10SM CLR 27/11 A2994 RMK AO2 SLP137 T02670111
Observed
Apr-23 @ 19:54 UTC
Wind
  • 220° at 9 KTS
Visibility
10 SM
Flight Rules
VFR
Cloud Levels
  • Clear skies
Temperature
27°C / 81°F
Dewpoint
11°C / 52°F
Humidity
37%
Altimeter
29.94" Hg
Pressure
1013.92 hPa
Previous

2 hours ago

KPHF 231854Z 20012KT 10SM CLR 26/11 A2997 RMK AO2 SLP148 T02610106
Observed
Apr-23 @ 18:54 UTC
Wind
  • 200° at 12 KTS
Visibility
10 SM
Flight Rules
VFR
Cloud Levels
  • Clear skies
Temperature
26°C / 79°F
Dewpoint
11°C / 52°F
Humidity
39%
Altimeter
29.97" Hg
Pressure
1014.92 hPa
Previous

3 hours ago

KPHF 231754Z 20010KT 10SM CLR 26/10 A3000 RMK AO2 SLP158 T02560100 10256 20161 58027
Observed
Apr-23 @ 17:54 UTC
Wind
  • 200° at 10 KTS
Visibility
10 SM
Flight Rules
VFR
Cloud Levels
  • Clear skies
Temperature
26°C / 79°F
Dewpoint
10°C / 50°F
Humidity
37%
Altimeter
30" Hg
Pressure
1015.92 hPa